Time;durP1;ratioP1;P1;durP2;ratioP2;P2;SDS_P1;SDS_P2;PMS_P1;PMS_P2;Temp;Humidity;BMP_temperature;BMP_pressure;BME280_temperature;BME280_humidity;BME280_pressure;Samples;Min_cycle;Max_cycle;Signal;HPM_P1;HPM_P2
2023/03/30 00:01:13;;;;;;;;;;;;;;;21.50;22.27;98456.50;4882485;29;1020;-74
2023/03/30 00:03:39;;;;;;;;;;;;;;;21.88;21.98;98448.47;4884426;29;1246;-74
2023/03/30 00:06:05;;;;;;;;;;;;;;;22.08;21.56;98451.28;4901062;29;933;-74
2023/03/30 00:08:32;;;;;;;;;;;;;;;22.25;21.54;98450.13;4885644;29;1297;-74
2023/03/30 00:11:04;;;;;;;;;;;;;;;22.04;21.79;98450.56;4947776;28;1902;-74
2023/03/30 00:13:30;;;;;;;;;;;;;;;21.72;21.99;98443.53;4939051;29;963;-73
2023/03/30 00:15:55;;;;;;;;;;;;;;;21.60;22.05;98455.50;4938899;29;1109;-73
2023/03/30 00:18:21;;;;;;;;;;;;;;;22.18;21.51;98444.63;4938799;29;972;-75
2023/03/30 00:20:50;;;;;;;;;;;;;;;22.18;21.71;98444.63;4939413;29;959;-74
2023/03/30 00:23:16;;;;;;;;;;;;;;;21.74;21.96;98443.88;4923082;29;979;-74
2023/03/30 00:25:42;;;;;;;;;;;;;;;21.52;22.08;98454.84;4954809;29;1008;-74
2023/03/30 00:28:07;;;;;;;;;;;;;;;21.61;22.29;98459.16;4938940;29;1039;-74
2023/03/30 00:30:33;;;;;;;;;;;;;;;22.08;21.40;98442.78;4922965;29;1976;-74
2023/03/30 00:32:59;;;;;;;;;;;;;;;22.33;21.18;98448.75;4907540;29;1635;-74
2023/03/30 00:35:25;;;;;;;;;;;;;;;22.14;21.20;98446.75;4968659;28;1161;-74
2023/03/30 00:37:51;;;;;;;;;;;;;;;21.88;21.53;98442.00;4975472;28;969;-74
2023/03/30 00:40:20;;;;;;;;;;;;;;;21.71;21.88;98446.78;4976494;28;882;-74
2023/03/30 00:42:45;;;;;;;;;;;;;;;21.97;21.58;98445.06;4959080;28;1152;-73
2023/03/30 00:45:18;;;;;;;;;;;;;;;22.02;21.75;98436.03;4958932;28;968;-74
2023/03/30 00:47:48;;;;;;;;;;;;;;;21.66;22.03;98435.97;4959162;28;1152;-74
2023/03/30 00:50:15;;;;;;;;;;;;;;;21.60;21.99;98444.16;4974945;28;1976;-74
2023/03/30 00:52:42;;;;;;;;;;;;;;;21.79;22.09;98434.88;4959079;28;969;-74
2023/03/30 00:55:07;;;;;;;;;;;;;;;22.25;21.09;98438.78;4975091;28;1179;-74
2023/03/30 00:57:35;;;;;;;;;;;;;;;22.03;21.37;98437.63;4975212;28;1021;-74
2023/03/30 01:00:00;;;;;;;;;;;;;;;22.05;21.48;98435.16;4943312;28;1119;-74
2023/03/30 01:02:27;;;;;;;;;;;;;;;21.62;21.98;98441.72;4975243;28;1001;-74
2023/03/30 01:04:53;;;;;;;;;;;;;;;21.63;21.91;98443.31;4974735;28;1231;-74
2023/03/30 01:07:23;;;;;;;;;;;;;;;21.50;21.94;98439.50;4974850;28;1111;-74
2023/03/30 01:09:49;;;;;;;;;;;;;;;21.51;22.17;98430.59;4959393;28;1971;-73
2023/03/30 01:12:15;;;;;;;;;;;;;;;21.72;21.65;98437.88;4974687;28;951;-75
2023/03/30 01:14:41;;;;;;;;;;;;;;;21.63;21.98;98448.97;4943204;28;1196;-74
2023/03/30 01:17:14;;;;;;;;;;;;;;;21.85;21.44;98438.00;4959110;28;1304;-74
2023/03/30 01:19:48;;;;;;;;;;;;;;;22.14;21.11;98458.06;4974871;28;975;-75
2023/03/30 01:22:23;;;;;;;;;;;;;;;21.62;21.81;98441.72;4976659;28;874;-74
2023/03/30 01:25:07;;;;;;;;;;;;;;;21.58;21.87;98435.31;4962667;28;977;-74
2023/03/30 01:27:52;;;;;;;;;;;;;;;21.62;21.87;98440.91;4978373;28;1155;-74
2023/03/30 01:30:30;;;;;;;;;;;;;;;22.14;21.31;98432.56;4979151;28;1931;-74
2023/03/30 01:33:14;;;;;;;;;;;;;;;21.99;21.37;98442.59;4977991;28;1064;-73
2023/03/30 01:35:43;;;;;;;;;;;;;;;21.78;21.53;98443.81;4978664;28;1092;-74
2023/03/30 01:38:14;;;;;;;;;;;;;;;21.82;21.45;98439.69;4957291;29;1581;-73
2023/03/30 01:40:41;;;;;;;;;;;;;;;21.69;21.83;98437.94;4925799;29;1251;-74
2023/03/30 01:43:15;;;;;;;;;;;;;;;21.83;21.48;98434.81;4941276;29;1014;-75
2023/03/30 01:45:45;;;;;;;;;;;;;;;21.90;21.46;98445.19;4941547;29;1305;-74
2023/03/30 01:48:34;;;;;;;;;;;;;;;22.01;21.49;98446.56;4941706;29;1153;-74
2023/03/30 01:51:01;;;;;;;;;;;;;;;21.74;21.50;98438.22;4865864;29;1982;-74
2023/03/30 01:53:27;;;;;;;;;;;;;;;21.54;21.74;98448.75;4881532;29;951;-73
2023/03/30 01:56:03;;;;;;;;;;;;;;;21.40;21.90;98458.31;4881439;29;1286;-75
2023/03/30 01:58:36;;;;;;;;;;;;;;;21.88;21.26;98442.00;4881571;29;1194;-74
2023/03/30 02:01:02;;;;;;;;;;;;;;;21.88;21.26;98450.50;4881418;29;1584;-74
2023/03/30 02:03:29;;;;;;;;;;;;;;;21.83;21.34;98446.94;4884016;29;1284;-75
2023/03/30 02:06:14;;;;;;;;;;;;;;;21.93;21.10;98439.47;4900203;29;1046;-74
2023/03/30 02:08:40;;;;;;;;;;;;;;;21.82;21.32;98441.72;4903191;29;1130;-74
2023/03/30 02:11:06;;;;;;;;;;;;;;;22.02;21.30;98447.34;4903255;29;1907;-74
2023/03/30 02:13:34;;;;;;;;;;;;;;;21.84;21.32;98453.41;4888176;29;1024;-74
2023/03/30 02:16:03;;;;;;;;;;;;;;;21.79;21.29;98440.56;4903122;29;1148;-73
2023/03/30 02:18:29;;;;;;;;;;;;;;;21.69;21.38;98452.88;4903210;29;943;-74
2023/03/30 02:20:57;;;;;;;;;;;;;;;21.77;21.36;98445.06;4903011;29;1220;-73
2023/03/30 02:23:24;;;;;;;;;;;;;;;21.46;21.57;98464.28;4887420;29;1031;-74
2023/03/30 02:25:52;;;;;;;;;;;;;;;21.49;21.64;98454.91;4872314;29;1133;-74
2023/03/30 02:28:17;;;;;;;;;;;;;;;21.49;21.78;98469.06;4932931;28;1037;-74
2023/03/30 02:30:43;;;;;;;;;;;;;;;21.49;21.52;98460.56;4961332;28;1911;-74
2023/03/30 02:33:12;;;;;;;;;;;;;;;21.89;21.03;98464.22;4978223;28;928;-74
2023/03/30 02:35:37;;;;;;;;;;;;;;;22.02;20.95;98458.69;4961089;28;1124;-74
2023/03/30 02:38:22;;;;;;;;;;;;;;;22.12;20.67;98457.69;4960980;28;1298;-75
2023/03/30 02:40:58;;;;;;;;;;;;;;;21.82;21.21;98456.69;4976970;28;1175;-74
2023/03/30 02:43:38;;;;;;;;;;;;;;;21.69;21.05;98452.88;4975417;28;1333;-74
2023/03/30 02:46:09;;;;;;;;;;;;;;;21.55;21.44;98464.50;4975212;28;1236;-75
2023/03/30 02:48:35;;;;;;;;;;;;;;;22.00;20.84;98461.19;4943407;28;1266;-75
2023/03/30 02:51:07;;;;;;;;;;;;;;;22.07;20.58;98459.00;4943418;28;1906;-74
2023/03/30 02:54:04;;;;;;;;;;;;;;;21.88;20.75;98461.84;4961637;28;925;-74
2023/03/30 02:57:11;;;;;;;;;;;;;;;21.66;21.07;98464.28;4905633;29;1121;-73
2023/03/30 02:59:48;;;;;;;;;;;;;;;21.73;20.92;98453.63;4880343;29;1242;-74
2023/03/30 03:02:20;;;;;;;;;;;;;;;21.27;21.37;98460.94;4864677;29;1299;-73
2023/03/30 03:04:53;;;;;;;;;;;;;;;21.79;21.02;98468.88;4865781;29;1373;-74
2023/03/30 03:07:31;;;;;;;;;;;;;;;21.92;20.82;98462.56;4866230;29;952;-73
2023/03/30 03:09:56;;;;;;;;;;;;;;;21.73;20.76;98464.97;4865226;29;1981;-73
2023/03/30 03:12:22;;;;;;;;;;;;;;;21.26;21.41;98469.88;4864734;29;1192;-74
2023/03/30 03:14:48;;;;;;;;;;;;;;;21.81;20.79;98469.25;4852470;29;1133;-74
2023/03/30 03:17:15;;;;;;;;;;;;;;;21.85;20.65;98472.78;4846048;29;1147;-74
2023/03/30 03:19:44;;;;;;;;;;;;;;;22.01;20.48;98471.25;4846046;29;1206;-74
2023/03/30 03:22:10;;;;;;;;;;;;;;;21.58;21.15;98474.97;4879594;29;1182;-74
2023/03/30 03:24:37;;;;;;;;;;;;;;;21.69;20.80;98481.22;4847473;29;1320;-74
2023/03/30 03:27:12;;;;;;;;;;;;;;;21.87;21.12;98474.41;4861035;29;1011;-74
2023/03/30 03:29:57;;;;;;;;;;;;;;;22.14;20.51;98479.94;4883926;29;1982;-75
2023/03/30 03:32:24;;;;;;;;;;;;;;;21.74;20.72;98494.88;4883143;29;910;-74
2023/03/30 03:34:50;;;;;;;;;;;;;;;21.83;20.69;98483.78;4933859;28;1461;-74
2023/03/30 03:37:16;;;;;;;;;;;;;;;21.63;20.90;98496.31;4950883;28;1431;-74
2023/03/30 03:39:43;;;;;;;;;;;;;;;22.00;20.50;98486.69;4908156;28;1483;-74
2023/03/30 03:42:11;;;;;;;;;;;;;;;21.99;20.69;98496.41;4955852;28;1824;-74
2023/03/30 03:44:45;;;;;;;;;;;;;;;21.85;20.89;98495.47;4950471;28;2406;-74
2023/03/30 03:47:12;;;;;;;;;;;;;;;21.78;20.90;98489.94;4954850;28;1055;-74
2023/03/30 03:49:38;;;;;;;;;;;;;;;21.76;21.07;98498.09;4955143;28;1914;-75
2023/03/30 03:52:03;;;;;;;;;;;;;;;21.77;20.93;98499.69;4954684;29;1306;-73
2023/03/30 03:54:29;;;;;;;;;;;;;;;21.87;21.08;98499.91;4939207;29;992;-74
2023/03/30 03:56:55;;;;;;;;;;;;;;;22.08;20.58;98496.63;4939306;29;1300;-74
2023/03/30 03:59:21;;;;;;;;;;;;;;;21.74;20.77;98492.03;4944268;28;1379;-74
2023/03/30 04:01:46;;;;;;;;;;;;;;;21.74;20.91;98494.06;4958517;28;1125;-74
2023/03/30 04:04:12;;;;;;;;;;;;;;;21.60;21.25;98500.78;4958002;28;1248;-74
2023/03/30 04:06:38;;;;;;;;;;;;;;;21.55;21.13;98504.13;4954806;29;1234;-74
2023/03/30 04:09:06;;;;;;;;;;;;;;;21.49;21.35;98500.19;4923017;29;1333;-74
2023/03/30 04:11:54;;;;;;;;;;;;;;;21.66;21.19;98503.94;4896323;29;1962;-75
2023/03/30 04:14:32;;;;;;;;;;;;;;;21.61;21.14;98508.09;4896227;29;1416;-74
2023/03/30 04:17:16;;;;;;;;;;;;;;;21.93;20.59;98501.00;4897438;29;1019;-74
2023/03/30 04:20:01;;;;;;;;;;;;;;;22.02;20.60;98506.84;4897697;29;997;-74
2023/03/30 04:22:52;;;;;;;;;;;;;;;21.70;20.97;98499.00;4860099;29;1035;-74
2023/03/30 04:25:28;;;;;;;;;;;;;;;21.64;21.32;98506.41;4846234;29;1333;-74
2023/03/30 04:28:20;;;;;;;;;;;;;;;21.61;21.20;98508.09;4841768;29;1051;-74
2023/03/30 04:31:04;;;;;;;;;;;;;;;21.83;21.00;98509.25;4787578;30;1987;-74
2023/03/30 04:33:33;;;;;;;;;;;;;;;21.89;20.47;98506.72;4803589;29;1519;-74
2023/03/30 04:36:26;;;;;;;;;;;;;;;22.29;19.97;98513.22;4777969;30;1351;-74
2023/03/30 04:39:29;;;;;;;;;;;;;;;22.28;20.18;98517.31;4786924;30;1714;-74
2023/03/30 04:42:04;;;;;;;;;;;;;;;21.84;20.47;98522.19;4787435;30;1030;-74
2023/03/30 04:44:46;;;;;;;;;;;;;;;21.79;20.51;98524.72;4788634;29;1275;-73
2023/03/30 04:47:38;;;;;;;;;;;;;;;21.62;20.82;98520.22;4775812;30;1104;-74
2023/03/30 04:50:26;;;;;;;;;;;;;;;22.09;20.25;98535.88;4767000;30;1970;-74
2023/03/30 04:53:07;;;;;;;;;;;;;;;22.01;20.23;98536.44;4776879;30;1702;-73
2023/03/30 04:56:08;;;;;;;;;;;;;;;21.76;20.48;98534.91;4779899;29;1042;-74
2023/03/30 04:59:00;;;;;;;;;;;;;;;21.88;20.64;98532.66;4739657;30;1440;-73
2023/03/30 05:01:44;;;;;;;;;;;;;;;21.78;20.55;98534.47;4715894;30;1037;-74
2023/03/30 05:04:45;;;;;;;;;;;;;;;21.67;20.72;98531.84;4739087;30;1184;-74
2023/03/30 05:07:11;;;;;;;;;;;;;;;21.94;20.43;98533.75;4740851;30;1478;-74
2023/03/30 05:09:46;;;;;;;;;;;;;;;21.60;20.91;98534.78;4757817;30;1911;-73
2023/03/30 05:12:18;;;;;;;;;;;;;;;21.45;20.91;98530.59;4767378;30;1077;-73
2023/03/30 05:15:07;;;;;;;;;;;;;;;21.96;20.38;98528.44;4766923;29;1046;-74
2023/03/30 05:18:02;;;;;;;;;;;;;;;22.12;19.85;98522.09;4748168;30;1549;-74
2023/03/30 05:20:55;;;;;;;;;;;;;;;22.22;19.88;98529.56;4747329;30;1160;-74
2023/03/30 05:23:44;;;;;;;;;;;;;;;21.74;20.21;98522.41;4748871;30;1015;-73
2023/03/30 05:26:45;;;;;;;;;;;;;;;21.55;20.48;98521.13;4747625;30;1015;-74
2023/03/30 05:29:19;;;;;;;;;;;;;;;21.88;20.01;98524.16;4739493;30;1012;-74
2023/03/30 05:32:04;;;;;;;;;;;;;;;21.90;19.93;98525.31;4755256;30;1435;-74
2023/03/30 05:34:51;;;;;;;;;;;;;;;21.83;19.98;98526.25;4787179;30;1197;-73
2023/03/30 05:37:55;;;;;;;;;;;;;;;21.76;19.95;98526.41;4774830;30;988;-75
2023/03/30 05:40:23;;;;;;;;;;;;;;;21.80;20.06;98527.13;4789968;30;1133;-74
2023/03/30 05:43:09;;;;;;;;;;;;;;;22.03;19.76;98534.00;4777718;29;1285;-74
2023/03/30 05:45:55;;;;;;;;;;;;;;;21.83;19.99;98534.75;4757815;30;1494;-74
2023/03/30 05:48:36;;;;;;;;;;;;;;;21.65;20.11;98548.44;4726675;30;1244;-74
2023/03/30 05:51:24;;;;;;;;;;;;;;;21.70;20.16;98541.47;4769060;30;1993;-73
2023/03/30 05:54:05;;;;;;;;;;;;;;;21.55;20.46;98538.09;4789877;29;1563;-73
2023/03/30 05:56:41;;;;;;;;;;;;;;;21.90;20.11;98538.69;4825979;29;1713;-74
2023/03/30 05:59:36;;;;;;;;;;;;;;;22.23;19.59;98534.81;4807485;29;990;-73
2023/03/30 06:02:24;;;;;;;;;;;;;;;22.39;19.49;98533.28;4765950;30;1573;-73
2023/03/30 06:04:55;;;;;;;;;;;;;;;21.75;19.90;98541.78;4768068;30;1440;-73
2023/03/30 06:07:23;;;;;;;;;;;;;;;21.69;20.37;98540.69;4769105;30;1089;-74
2023/03/30 06:09:49;;;;;;;;;;;;;;;21.60;20.20;98551.78;4768299;30;1908;-74
2023/03/30 06:12:23;;;;;;;;;;;;;;;22.00;19.85;98551.84;4770081;30;1739;-74
2023/03/30 06:14:48;;;;;;;;;;;;;;;22.29;19.19;98552.91;4785676;30;1452;-73
2023/03/30 06:17:39;;;;;;;;;;;;;;;21.77;19.90;98556.34;4797503;29;1328;-73
2023/03/30 06:20:09;;;;;;;;;;;;;;;22.04;19.82;98552.59;4789077;30;1514;-74
2023/03/30 06:22:36;;;;;;;;;;;;;;;21.76;19.77;98560.41;4784321;29;1577;-73
2023/03/30 06:25:08;;;;;;;;;;;;;;;22.23;19.50;98566.00;4785653;30;1543;-74
2023/03/30 06:27:34;;;;;;;;;;;;;;;22.23;19.56;98571.66;4805016;29;1633;-73
2023/03/30 06:30:00;;;;;;;;;;;;;;;22.56;18.91;98560.44;4875761;29;1985;-74
2023/03/30 06:32:26;;;;;;;;;;;;;;;21.79;19.87;98573.69;4867814;29;1084;-74
2023/03/30 06:35:12;;;;;;;;;;;;;;;21.60;19.76;98568.75;4906277;29;1019;-74
2023/03/30 06:37:38;;;;;;;;;;;;;;;21.58;20.03;98571.25;4953291;28;1797;-74
2023/03/30 06:40:12;;;;;;;;;;;;;;;22.05;19.31;98565.50;4979181;28;1575;-74
2023/03/30 06:42:38;;;;;;;;;;;;;;;22.20;19.03;98572.53;4976854;28;1117;-74
2023/03/30 06:45:26;;;;;;;;;;;;;;;21.63;19.67;98567.91;4963797;28;1541;-74
2023/03/30 06:47:53;;;;;;;;;;;;;;;21.69;19.67;98566.19;4967547;28;1204;-74
2023/03/30 06:50:20;;;;;;;;;;;;;;;21.77;19.47;98570.50;4996132;28;1914;-74
2023/03/30 06:52:51;;;;;;;;;;;;;;;22.11;19.10;98575.13;4975216;28;1004;-74
2023/03/30 06:55:18;;;;;;;;;;;;;;;22.01;19.25;98576.13;4955742;29;1184;-74
2023/03/30 06:57:45;;;;;;;;;;;;;;;21.87;19.55;98570.75;4940267;29;1281;-74
2023/03/30 07:00:14;;;;;;;;;;;;;;;21.70;19.67;98569.81;4955604;29;1492;-74
2023/03/30 07:02:39;;;;;;;;;;;;;;;21.62;19.52;98574.00;4955864;29;999;-73
2023/03/30 07:05:28;;;;;;;;;;;;;;;21.78;19.55;98577.75;4942055;29;1126;-74
2023/03/30 07:08:13;;;;;;;;;;;;;;;22.10;18.86;98582.00;4923584;29;1627;-73
2023/03/30 07:10:46;;;;;;;;;;;;;;;22.34;18.58;98577.91;4905862;29;1906;-74
2023/03/30 07:13:13;;;;;;;;;;;;;;;22.15;18.62;98580.75;4888649;29;1693;-74
2023/03/30 07:15:40;;;;;;;;;;;;;;;21.96;18.94;98580.25;4902356;29;1287;-73
2023/03/30 07:18:07;;;;;;;;;;;;;;;21.55;19.21;98589.06;4917533;29;1721;-74
2023/03/30 07:20:32;;;;;;;;;;;;;;;21.49;19.65;98579.47;4901256;29;1066;-74
2023/03/30 07:23:12;;;;;;;;;;;;;;;22.06;18.80;98584.91;4921559;29;1337;-74
2023/03/30 07:25:39;;;;;;;;;;;;;;;22.25;18.76;98586.19;4921511;29;1406;-74
2023/03/30 07:28:12;;;;;;;;;;;;;;;22.15;18.34;98586.41;4905695;29;1316;-74
2023/03/30 07:30:38;;;;;;;;;;;;;;;21.67;19.01;98579.97;4933039;29;1906;-74
2023/03/30 07:33:06;;;;;;;;;;;;;;;21.70;18.93;98573.44;4917149;29;1192;-74
2023/03/30 07:35:32;;;;;;;;;;;;;;;22.01;18.44;98587.44;4901252;29;1160;-74
2023/03/30 07:38:01;;;;;;;;;;;;;;;22.07;18.66;98582.88;4901316;29;1679;-74
2023/03/30 07:40:30;;;;;;;;;;;;;;;22.20;18.20;98589.53;4958855;28;1392;-74
2023/03/30 07:42:56;;;;;;;;;;;;;;;22.18;18.07;98586.34;4958283;28;1585;-74
2023/03/30 07:45:22;;;;;;;;;;;;;;;21.75;18.63;98575.78;4974440;28;1099;-74
2023/03/30 07:47:48;;;;;;;;;;;;;;;21.90;18.35;98587.66;4958611;28;1137;-74
2023/03/30 07:50:14;;;;;;;;;;;;;;;21.99;18.36;98581.44;4957764;28;1898;-74
2023/03/30 07:52:40;;;;;;;;;;;;;;;22.34;17.89;98589.25;4974819;28;994;-74
2023/03/30 07:55:08;;;;;;;;;;;;;;;22.06;18.04;98584.09;4942386;28;1613;-74
2023/03/30 07:57:46;;;;;;;;;;;;;;;21.77;18.61;98579.00;4943934;28;1247;-74
2023/03/30 08:00:13;;;;;;;;;;;;;;;21.99;18.29;98579.38;4954847;28;1077;-74
2023/03/30 08:02:58;;;;;;;;;;;;;;;21.70;18.60;98584.75;4954349;28;960;-73
2023/03/30 08:05:24;;;;;;;;;;;;;;;21.74;18.44;98579.84;4929378;29;1706;-74
2023/03/30 08:08:10;;;;;;;;;;;;;;;22.23;18.05;98594.34;4916448;29;1111;-74
2023/03/30 08:10:37;;;;;;;;;;;;;;;22.31;18.18;98578.78;4911436;29;1981;-74
2023/03/30 08:13:02;;;;;;;;;;;;;;;21.93;18.27;98580.34;4919894;29;1113;-74
2023/03/30 08:15:28;;;;;;;;;;;;;;;21.91;18.26;98582.78;4932994;28;1348;-74
2023/03/30 08:17:54;;;;;;;;;;;;;;;21.90;18.54;98581.19;4957997;28;1193;-74
2023/03/30 08:20:19;;;;;;;;;;;;;;;22.13;17.89;98574.72;4974129;28;1182;-74
2023/03/30 08:22:45;;;;;;;;;;;;;;;22.16;17.90;98580.31;4958397;28;1290;-74
2023/03/30 08:25:10;;;;;;;;;;;;;;;22.16;18.00;98571.78;4973054;28;1494;-74
2023/03/30 08:27:36;;;;;;;;;;;;;;;21.89;18.49;98582.44;4974416;28;1052;-74
2023/03/30 08:30:02;;;;;;;;;;;;;;;21.79;18.57;98576.50;4974105;28;1902;-74
2023/03/30 08:32:27;;;;;;;;;;;;;;;21.74;18.56;98581.88;4944291;28;1459;-74
2023/03/30 08:34:53;;;;;;;;;;;;;;;22.39;17.81;98581.50;4943707;28;1481;-74
2023/03/30 08:37:19;;;;;;;;;;;;;;;22.24;17.81;98573.25;4911334;29;968;-74
2023/03/30 08:39:44;;;;;;;;;;;;;;;22.30;17.72;98577.19;4974024;28;908;-74
2023/03/30 08:42:25;;;;;;;;;;;;;;;21.92;18.13;98567.41;4998232;28;1525;-73
2023/03/30 08:44:52;;;;;;;;;;;;;;;21.95;18.26;98572.19;4957150;29;1423;-74
2023/03/30 08:47:21;;;;;;;;;;;;;;;21.85;18.01;98552.13;4923241;29;992;-74
2023/03/30 08:49:52;;;;;;;;;;;;;;;21.91;18.22;98551.63;4923568;29;1891;-74
2023/03/30 08:52:21;;;;;;;;;;;;;;;22.31;17.42;98550.44;4923234;29;1059;-74
2023/03/30 08:54:47;;;;;;;;;;;;;;;22.19;17.87;98558.81;4923336;29;1320;-74
2023/03/30 08:57:30;;;;;;;;;;;;;;;21.95;17.93;98552.34;4942508;29;1045;-73
2023/03/30 09:00:06;;;;;;;;;;;;;;;21.68;18.06;98544.75;4942392;29;973;-74
2023/03/30 09:02:32;;;;;;;;;;;;;;;21.97;17.90;98547.06;4942563;29;1065;-74
2023/03/30 09:05:03;;;;;;;;;;;;;;;22.38;17.44;98531.66;4924101;29;1546;-74
2023/03/30 09:07:47;;;;;;;;;;;;;;;22.32;17.33;98545.56;4923057;29;1084;-74
2023/03/30 09:10:13;;;;;;;;;;;;;;;21.83;17.75;98543.25;4885171;29;1981;-74
2023/03/30 09:12:38;;;;;;;;;;;;;;;21.87;17.60;98536.75;4869816;29;1417;-73
2023/03/30 09:15:10;;;;;;;;;;;;;;;21.42;18.36;98539.97;4901072;29;1473;-74
2023/03/30 09:17:59;;;;;;;;;;;;;;;21.99;17.86;98544.59;4885162;29;987;-73
2023/03/30 09:20:28;;;;;;;;;;;;;;;22.35;17.38;98528.47;4848086;29;1149;-74
2023/03/30 09:22:54;;;;;;;;;;;;;;;21.96;17.54;98539.78;4860574;29;1296;-74
2023/03/30 09:25:24;;;;;;;;;;;;;;;21.86;17.82;98541.59;4884709;29;1426;-73
2023/03/30 09:28:02;;;;;;;;;;;;;;;21.72;17.89;98528.50;4900707;29;1094;-74
2023/03/30 09:30:57;;;;;;;;;;;;;;;21.74;17.64;98540.19;4900380;29;1898;-74
2023/03/30 09:33:27;;;;;;;;;;;;;;;21.82;17.88;98532.38;4881848;29;1169;-74
2023/03/30 09:36:12;;;;;;;;;;;;;;;21.99;17.73;98528.38;4850454;29;1500;-74
2023/03/30 09:38:40;;;;;;;;;;;;;;;21.73;17.76;98527.25;4850998;29;1150;-74
2023/03/30 09:41:21;;;;;;;;;;;;;;;21.84;18.06;98533.53;4851347;29;985;-74
2023/03/30 09:43:47;;;;;;;;;;;;;;;21.53;17.93;98529.25;4864486;29;1370;-74
2023/03/30 09:46:13;;;;;;;;;;;;;;;21.69;17.90;98532.19;4866365;29;1050;-74
2023/03/30 09:48:40;;;;;;;;;;;;;;;22.08;17.57;98525.78;4900233;29;984;-74
2023/03/30 09:51:24;;;;;;;;;;;;;;;22.17;17.41;98516.69;4887184;29;1911;-73
2023/03/30 09:53:57;;;;;;;;;;;;;;;21.94;17.41;98491.25;4902758;29;1522;-74
2023/03/30 09:56:28;;;;;;;;;;;;;;;21.88;17.83;98522.13;4902799;29;1444;-74
2023/03/30 09:58:54;;;;;;;;;;;;;;;21.58;18.12;98525.94;4903360;29;1121;-73
2023/03/30 10:01:20;;;;;;;;;;;;;;;21.62;18.18;98521.00;4881132;29;1000;-74
2023/03/30 10:04:04;;;;;;;;;;;;;;;22.07;17.77;98515.69;4857351;29;1629;-74
2023/03/30 10:06:30;;;;;;;;;;;;;;;21.93;17.82;98518.00;4880677;29;1806;-73
2023/03/30 10:08:55;;;;;;;;;;;;;;;22.15;17.53;98516.34;4895696;29;1486;-74
2023/03/30 10:11:28;;;;;;;;;;;;;;;21.93;17.80;98518.00;4925361;29;1922;-74
2023/03/30 10:13:53;;;;;;;;;;;;;;;21.86;17.82;98518.91;4940138;29;1908;-74
2023/03/30 10:16:26;;;;;;;;;;;;;;;21.69;18.12;98515.19;4923987;29;2012;-74
2023/03/30 10:18:52;;;;;;;;;;;;;;;22.08;17.62;98499.47;4941273;29;1014;-75
2023/03/30 10:21:21;;;;;;;;;;;;;;;22.08;17.46;98497.44;4911045;29;1964;-73
2023/03/30 10:23:57;;;;;;;;;;;;;;;22.11;17.51;98495.78;4940939;29;1046;-74
2023/03/30 10:26:27;;;;;;;;;;;;;;;21.92;17.56;98502.25;4940766;29;950;-74
2023/03/30 10:29:02;;;;;;;;;;;;;;;21.83;17.66;98494.31;4941023;29;1085;-73
2023/03/30 10:31:28;;;;;;;;;;;;;;;21.74;17.75;98506.19;4942368;28;1903;-73
2023/03/30 10:33:55;;;;;;;;;;;;;;;21.91;17.63;98503.44;4940270;29;1243;-74
2023/03/30 10:36:21;;;;;;;;;;;;;;;21.95;17.50;98501.34;4924863;29;1121;-73
2023/03/30 10:38:46;;;;;;;;;;;;;;;21.99;17.63;98487.91;4921894;29;1254;-73
2023/03/30 10:41:15;;;;;;;;;;;;;;;21.84;17.76;98488.19;4906134;29;1688;-73
2023/03/30 10:43:41;;;;;;;;;;;;;;;21.64;18.11;98498.69;4902381;29;1079;-73
2023/03/30 10:46:12;;;;;;;;;;;;;;;21.63;17.86;98490.66;4899298;29;917;-73
2023/03/30 10:48:58;;;;;;;;;;;;;;;21.95;17.58;98482.31;4899295;29;929;-74
2023/03/30 10:51:26;;;;;;;;;;;;;;;22.12;17.28;98483.19;4914309;29;1888;-73
2023/03/30 10:53:52;;;;;;;;;;;;;;;21.79;17.63;98483.03;4918270;29;978;-73
2023/03/30 10:56:20;;;;;;;;;;;;;;;21.55;17.96;98475.81;4918024;29;950;-74
2023/03/30 10:59:04;;;;;;;;;;;;;;;21.58;18.16;98486.28;4918015;29;1012;-73
2023/03/30 11:01:45;;;;;;;;;;;;;;;21.99;17.58;98470.91;4916629;29;1977;-74
2023/03/30 11:04:16;;;;;;;;;;;;;;;21.92;17.72;98468.25;4926033;29;1095;-74
2023/03/30 11:06:42;;;;;;;;;;;;;;;22.01;17.60;98469.22;4921063;29;1185;-74
2023/03/30 11:09:09;;;;;;;;;;;;;;;21.82;17.78;98482.19;4941271;29;977;-73
2023/03/30 11:11:46;;;;;;;;;;;;;;;21.72;17.66;98474.69;4957159;28;1912;-73
2023/03/30 11:14:14;;;;;;;;;;;;;;;21.61;18.12;98465.59;4943022;28;1156;-74
2023/03/30 11:16:46;;;;;;;;;;;;;;;21.88;17.45;98464.69;4959070;28;1024;-74
2023/03/30 11:19:11;;;;;;;;;;;;;;;22.10;17.56;98465.81;4974862;28;923;-73
2023/03/30 11:22:00;;;;;;;;;;;;;;;22.02;17.26;98451.00;4956665;28;1949;-73
2023/03/30 11:24:26;;;;;;;;;;;;;;;21.87;17.40;98452.53;4880278;29;1002;-73
2023/03/30 11:27:09;;;;;;;;;;;;;;;21.69;17.74;98461.38;4882541;29;1306;-73
2023/03/30 11:29:42;;;;;;;;;;;;;;;21.94;17.67;98446.72;4902426;29;2043;-73
2023/03/30 11:32:10;;;;;;;;;;;;;;;22.03;17.58;98438.44;4900954;29;1989;-74
2023/03/30 11:34:41;;;;;;;;;;;;;;;22.22;17.51;98445.31;4901672;29;1180;-73
2023/03/30 11:37:28;;;;;;;;;;;;;;;22.09;17.59;98441.56;4901564;29;999;-73
2023/03/30 11:39:55;;;;;;;;;;;;;;;21.91;17.93;98435.44;4900834;29;1886;-74
2023/03/30 11:42:25;;;;;;;;;;;;;;;21.49;17.98;98437.91;4901320;29;1140;-73
2023/03/30 11:44:51;;;;;;;;;;;;;;;21.53;18.30;98424.50;4901350;29;1019;-73
2023/03/30 11:47:23;;;;;;;;;;;;;;;21.45;18.51;98437.19;4899768;29;1976;-74
2023/03/30 11:50:01;;;;;;;;;;;;;;;21.81;18.10;98428.78;4898193;29;1003;-73
2023/03/30 11:52:31;;;;;;;;;;;;;;;21.89;17.67;98420.94;4898106;29;1381;-73
2023/03/30 11:55:00;;;;;;;;;;;;;;;22.15;17.42;98420.00;4882471;29;964;-73
2023/03/30 11:57:25;;;;;;;;;;;;;;;21.61;18.33;98420.31;4898492;29;1603;-74
2023/03/30 12:00:00;;;;;;;;;;;;;;;21.83;17.95;98418.63;4916351;29;1864;-73
2023/03/30 12:02:28;;;;;;;;;;;;;;;21.36;18.32;98428.47;4970711;28;936;-73
2023/03/30 12:05:12;;;;;;;;;;;;;;;21.75;17.88;98416.34;4989986;28;1066;-73
2023/03/30 12:08:01;;;;;;;;;;;;;;;21.88;17.57;98410.84;4997864;28;1925;-73
2023/03/30 12:10:30;;;;;;;;;;;;;;;22.03;17.58;98420.63;4954765;29;1911;-73
2023/03/30 12:12:56;;;;;;;;;;;;;;;21.75;17.81;98411.50;4923259;29;1189;-73
2023/03/30 12:15:40;;;;;;;;;;;;;;;21.75;17.99;98416.34;4916423;29;959;-73
2023/03/30 12:18:23;;;;;;;;;;;;;;;21.69;18.13;98407.56;4915815;29;1707;-73
2023/03/30 12:20:54;;;;;;;;;;;;;;;21.96;17.98;98410.25;4901109;29;1118;-73
2023/03/30 12:23:19;;;;;;;;;;;;;;;22.08;17.39;98412.41;4900956;29;1017;-74
2023/03/30 12:26:03;;;;;;;;;;;;;;;21.79;17.69;98409.38;4916508;29;1002;-73
2023/03/30 12:29:07;;;;;;;;;;;;;;;21.82;17.80;98411.34;4897020;29;1940;-74
2023/03/30 12:31:52;;;;;;;;;;;;;;;21.56;18.20;98421.59;4805913;29;1974;-73
2023/03/30 12:34:17;;;;;;;;;;;;;;;21.82;17.97;98411.34;4787527;30;1245;-73
2023/03/30 12:36:54;;;;;;;;;;;;;;;22.02;17.53;98402.03;4787452;30;1034;-73
2023/03/30 12:39:24;;;;;;;;;;;;;;;22.05;17.45;98412.50;4800990;29;1938;-73
2023/03/30 12:41:56;;;;;;;;;;;;;;;21.66;17.91;98414.13;4805721;29;963;-74
2023/03/30 12:44:39;;;;;;;;;;;;;;;21.57;18.00;98400.53;4805449;29;991;-73
2023/03/30 12:47:08;;;;;;;;;;;;;;;21.92;17.74;98397.41;4840478;29;1031;-74
2023/03/30 12:49:53;;;;;;;;;;;;;;;21.94;17.57;98400.59;4859471;29;1952;-73
2023/03/30 12:52:42;;;;;;;;;;;;;;;22.16;17.23;98396.06;4860419;29;978;-74
2023/03/30 12:55:20;;;;;;;;;;;;;;;21.74;17.73;98390.06;4841791;29;1107;-73
2023/03/30 12:58:04;;;;;;;;;;;;;;;21.67;18.01;98386.59;4840168;29;1808;-73
2023/03/30 13:00:35;;;;;;;;;;;;;;;22.07;17.54;98381.66;4842003;29;1003;-73
2023/03/30 13:03:01;;;;;;;;;;;;;;;22.21;17.27;98392.72;4885816;29;1058;-73
2023/03/30 13:05:31;;;;;;;;;;;;;;;22.15;17.20;98383.16;4878651;29;1015;-73
2023/03/30 13:07:57;;;;;;;;;;;;;;;21.75;17.81;98382.38;4896580;29;1911;-73
2023/03/30 13:10:28;;;;;;;;;;;;;;;21.53;17.87;98373.53;4897126;29;1986;-73
2023/03/30 13:12:57;;;;;;;;;;;;;;;21.64;18.02;98376.94;4915709;29;1511;-73
2023/03/30 13:15:31;;;;;;;;;;;;;;;21.78;17.58;98376.63;4900352;29;1086;-73
2023/03/30 13:17:56;;;;;;;;;;;;;;;21.99;17.59;98368.91;4930511;29;1914;-73
2023/03/30 13:20:31;;;;;;;;;;;;;;;21.85;17.55;98365.16;4919430;29;1027;-73
2023/03/30 13:22:59;;;;;;;;;;;;;;;21.68;17.93;98376.88;4919289;29;1025;-74
2023/03/30 13:25:26;;;;;;;;;;;;;;;21.59;17.80;98374.63;4900584;29;1230;-73
2023/03/30 13:27:55;;;;;;;;;;;;;;;21.90;17.45;98377.19;4902556;29;2093;-73